Time;durP1;ratioP1;P1;durP2;ratioP2;P2;SDS_P1;SDS_P2;PMS_P1;PMS_P2;Temp;Humidity;BMP_temperature;BMP_pressure;BME280_temperature;BME280_humidity;BME280_pressure;Samples;Min_cycle;Max_cycle;Signal;HPM_P1;HPM_P2
2023/10/04 00:00:22;;;;;;;9.60;3.40;;;13.20;61.10;;;;;;4996186;28;20386;-77
2023/10/04 00:02:53;;;;;;;12.97;3.63;;;13.20;61.20;;;;;;4996800;28;20417;-77
2023/10/04 00:05:20;;;;;;;10.88;3.50;;;13.30;61.40;;;;;;4996947;28;20402;-76
2023/10/04 00:07:48;;;;;;;12.93;3.50;;;13.30;60.70;;;;;;4998187;28;20438;-75
2023/10/04 00:10:14;;;;;;;12.27;3.72;;;13.20;61.80;;;;;;4996914;28;20818;-77
2023/10/04 00:12:42;;;;;;;16.97;3.70;;;13.20;61.70;;;;;;4996183;28;20427;-77
2023/10/04 00:15:12;;;;;;;10.68;3.70;;;13.20;61.80;;;;;;4978078;28;20386;-77
2023/10/04 00:17:41;;;;;;;18.80;4.30;;;13.20;62.00;;;;;;4996743;28;20396;-78
2023/10/04 00:20:13;;;;;;;9.02;3.60;;;13.20;63.30;;;;;;4979048;28;20897;-76
2023/10/04 00:22:40;;;;;;;10.43;3.10;;;13.10;63.40;;;;;;4996716;28;20398;-76
2023/10/04 00:25:11;;;;;;;13.85;3.80;;;13.10;64.30;;;;;;4996352;28;20901;-78
2023/10/04 00:27:42;;;;;;;8.00;3.33;;;13.10;64.90;;;;;;4997643;28;20406;-77
2023/10/04 00:30:11;;;;;;;10.68;3.50;;;13.20;63.20;;;;;;4995613;28;20440;-77
2023/10/04 00:32:38;;;;;;;15.13;4.00;;;13.20;63.40;;;;;;4996166;28;20453;-77
2023/10/04 00:35:09;;;;;;;9.57;3.60;;;13.10;64.10;;;;;;4996949;28;20920;-76
2023/10/04 00:37:35;;;;;;;11.70;3.78;;;13.10;65.10;;;;;;4994698;28;20405;-76
2023/10/04 00:40:00;;;;;;;10.20;3.63;;;13.00;65.90;;;;;;4995665;28;20386;-77
2023/10/04 00:42:26;;;;;;;17.05;4.15;;;13.00;65.90;;;;;;4996308;28;20516;-76
2023/10/04 00:44:52;;;;;;;10.02;3.20;;;13.10;66.20;;;;;;4996170;28;20410;-76
2023/10/04 00:47:18;;;;;;;8.98;3.30;;;13.30;64.40;;;;;;4998969;28;20414;-76
2023/10/04 00:49:47;;;;;;;10.75;3.90;;;13.20;64.30;;;;;;4997399;28;20383;-77
2023/10/04 00:52:14;;;;;;;10.85;3.78;;;13.20;64.20;;;;;;4996057;28;20390;-76
2023/10/04 00:54:40;;;;;;;8.43;3.42;;;13.20;64.20;;;;;;4995781;28;20800;-76
2023/10/04 00:57:11;;;;;;;18.55;3.90;;;13.10;65.70;;;;;;4995562;28;20394;-76
2023/10/04 00:59:37;;;;;;;16.53;3.40;;;13.10;65.60;;;;;;4978992;28;20395;-76
2023/10/04 01:02:03;;;;;;;7.80;3.30;;;13.20;65.10;;;;;;4981109;28;20398;-76
2023/10/04 01:04:28;;;;;;;12.10;3.73;;;13.20;65.40;;;;;;4999344;28;20413;-77
2023/10/04 01:06:54;;;;;;;13.30;3.80;;;13.10;66.40;;;;;;4997532;28;20413;-76
2023/10/04 01:09:23;;;;;;;12.43;3.80;;;13.00;67.90;;;;;;4980884;28;20621;-78
2023/10/04 01:11:48;;;;;;;7.97;3.20;;;13.10;67.30;;;;;;4997513;28;20386;-76
2023/10/04 01:14:38;;;;;;;13.37;3.30;;;13.00;67.10;;;;;;4981200;28;20393;-77
2023/10/04 01:17:00;;;;;;;15.90;3.88;;;13.00;68.00;;;;;;4996662;28;20892;-76
2023/10/04 01:19:26;;;;;;;8.95;3.30;;;13.10;67.80;;;;;;4995656;28;20399;-77
2023/10/04 01:21:52;;;;;;;12.50;3.80;;;12.90;69.90;;;;;;4978463;28;20407;-75
2023/10/04 01:24:17;;;;;;;12.20;3.30;;;12.90;71.20;;;;;;4995872;28;20421;-76
2023/10/04 01:26:43;;;;;;;16.03;3.80;;;12.80;71.30;;;;;;4995941;28;20393;-77
2023/10/04 01:29:11;;;;;;;13.45;3.83;;;12.90;70.90;;;;;;4996691;28;20469;-75
2023/10/04 01:31:38;;;;;;;14.38;3.70;;;12.90;72.00;;;;;;4996028;28;20857;-76
2023/10/04 01:34:05;;;;;;;15.32;3.53;;;12.90;71.50;;;;;;4994528;28;20398;-76
2023/10/04 01:36:36;;;;;;;15.55;3.65;;;12.90;71.20;;;;;;4995278;28;20758;-78
2023/10/04 01:39:07;;;;;;;16.38;4.20;;;13.00;71.50;;;;;;4997691;28;20397;-77
2023/10/04 01:41:37;;;;;;;8.52;3.42;;;13.00;70.30;;;;;;4976700;28;20762;-77
2023/10/04 01:44:04;;;;;;;10.05;3.17;;;13.10;69.70;;;;;;4993936;28;22362;-77
2023/10/04 01:46:29;;;;;;;16.75;4.03;;;13.10;69.70;;;;;;4993611;28;20420;-76
2023/10/04 01:48:56;;;;;;;15.60;3.67;;;13.10;71.00;;;;;;4993979;28;20391;-77
2023/10/04 01:51:22;;;;;;;13.15;3.92;;;13.00;71.70;;;;;;4998026;28;20474;-77
2023/10/04 01:53:48;;;;;;;10.57;3.95;;;13.00;72.10;;;;;;5000136;28;20402;-77
2023/10/04 01:56:13;;;;;;;15.27;3.90;;;13.00;72.50;;;;;;4997565;28;20873;-76
2023/10/04 01:58:39;;;;;;;15.93;4.20;;;13.00;72.10;;;;;;4997953;28;20421;-76
2023/10/04 02:01:06;;;;;;;14.33;4.10;;;13.10;71.10;;;;;;4996697;28;20889;-76
2023/10/04 02:03:32;;;;;;;19.38;3.70;;;13.00;71.40;;;;;;4997059;28;20400;-77
2023/10/04 02:05:58;;;;;;;17.17;3.80;;;13.00;72.40;;;;;;4996714;28;20485;-76
2023/10/04 02:08:24;;;;;;;12.13;3.33;;;13.10;72.10;;;;;;4995872;28;20939;-76
2023/10/04 02:10:51;;;;;;;9.93;3.35;;;13.10;71.00;;;;;;4994522;28;20747;-76
2023/10/04 02:13:17;;;;;;;11.55;3.90;;;13.10;72.00;;;;;;4993597;28;20383;-76
2023/10/04 02:15:53;;;;;;;12.70;3.93;;;13.10;72.10;;;;;;4993651;28;20387;-76
2023/10/04 02:18:19;;;;;;;13.93;3.90;;;13.10;72.20;;;;;;4994982;28;20402;-77
2023/10/04 02:20:48;;;;;;;9.45;3.17;;;13.10;72.30;;;;;;4996501;28;20400;-76
2023/10/04 02:23:15;;;;;;;11.07;3.60;;;13.20;71.20;;;;;;4994513;28;20450;-76
2023/10/04 02:25:41;;;;;;;8.80;3.50;;;13.20;70.30;;;;;;4994706;28;20419;-77
2023/10/04 02:28:18;;;;;;;11.95;3.58;;;13.20;70.90;;;;;;4994809;28;20802;-76
2023/10/04 02:30:45;;;;;;;12.20;3.63;;;13.20;71.10;;;;;;4977916;28;20402;-77
2023/10/04 02:33:14;;;;;;;11.10;3.03;;;13.10;72.50;;;;;;4995134;28;20975;-77
2023/10/04 02:35:44;;;;;;;16.92;3.85;;;13.10;74.10;;;;;;4994085;28;20394;-76
2023/10/04 02:38:19;;;;;;;15.73;3.33;;;13.10;72.30;;;;;;4975046;28;20386;-76
2023/10/04 02:40:46;;;;;;;12.63;3.40;;;13.20;71.90;;;;;;4975660;28;20406;-75
2023/10/04 02:43:15;;;;;;;11.43;3.72;;;13.30;70.60;;;;;;4992467;28;20481;-76
2023/10/04 02:45:41;;;;;;;13.97;4.00;;;13.30;70.50;;;;;;4974809;28;20494;-76
2023/10/04 02:48:10;;;;;;;10.93;4.13;;;13.30;70.80;;;;;;4974760;28;20414;-75
2023/10/04 02:50:37;;;;;;;12.20;4.45;;;13.40;69.30;;;;;;4991447;28;20753;-76
2023/10/04 02:53:03;;;;;;;21.02;5.50;;;13.40;68.60;;;;;;4991010;28;20773;-75
2023/10/04 02:55:31;;;;;;;21.25;5.00;;;13.50;67.00;;;;;;4991582;28;20398;-75
2023/10/04 02:58:00;;;;;;;13.07;4.78;;;13.50;68.30;;;;;;4991696;28;20394;-76
2023/10/04 03:00:26;;;;;;;20.80;4.40;;;13.50;68.20;;;;;;4992040;28;20478;-76
2023/10/04 03:02:53;;;;;;;15.27;4.55;;;13.60;67.50;;;;;;4991436;28;20477;-76
2023/10/04 03:05:20;;;;;;;18.42;4.00;;;13.50;68.00;;;;;;4974346;28;20406;-77
2023/10/04 03:07:48;;;;;;;10.45;3.78;;;13.60;67.40;;;;;;4995131;28;20410;-77
2023/10/04 03:10:23;;;;;;;14.45;4.07;;;13.50;67.10;;;;;;4996835;28;20382;-77
2023/10/04 03:12:53;;;;;;;14.00;3.78;;;13.50;68.10;;;;;;4995950;28;20410;-77
2023/10/04 03:15:23;;;;;;;16.42;3.67;;;13.50;68.40;;;;;;4991711;28;20387;-76
2023/10/04 03:17:53;;;;;;;13.20;3.50;;;13.50;68.70;;;;;;4974588;28;20446;-76
2023/10/04 03:20:23;;;;;;;16.40;3.80;;;13.50;68.40;;;;;;4992121;28;20436;-77
2023/10/04 03:22:51;;;;;;;15.65;3.70;;;13.50;68.30;;;;;;4994414;28;20448;-77
2023/10/04 03:25:17;;;;;;;12.18;3.85;;;13.50;68.40;;;;;;4992944;28;20544;-77
2023/10/04 03:27:46;;;;;;;13.93;3.63;;;13.60;67.00;;;;;;4996074;28;20885;-77
2023/10/04 03:30:17;;;;;;;15.32;3.20;;;13.60;67.60;;;;;;4996258;28;20474;-76
2023/10/04 03:32:53;;;;;;;15.63;3.38;;;13.60;67.00;;;;;;4997181;28;20388;-76
2023/10/04 03:35:24;;;;;;;18.52;4.05;;;13.60;67.20;;;;;;4997824;28;20465;-76
2023/10/04 03:37:54;;;;;;;15.98;3.17;;;13.60;66.70;;;;;;5000416;28;20398;-77
2023/10/04 03:40:22;;;;;;;11.32;3.20;;;13.70;66.70;;;;;;4998320;28;20422;-74
2023/10/04 03:42:48;;;;;;;11.98;3.40;;;13.70;65.70;;;;;;4979454;28;20414;-76
2023/10/04 03:45:17;;;;;;;16.37;4.27;;;13.70;65.70;;;;;;4976497;28;20537;-76
2023/10/04 03:47:44;;;;;;;14.40;3.40;;;13.70;65.90;;;;;;4992938;28;20394;-78
2023/10/04 03:50:11;;;;;;;14.43;3.80;;;13.90;64.30;;;;;;4978185;28;20457;-76
2023/10/04 03:52:38;;;;;;;13.13;3.40;;;13.90;64.40;;;;;;4993733;28;20444;-78
2023/10/04 03:55:09;;;;;;;12.80;3.43;;;13.80;64.60;;;;;;4977068;28;20818;-77
2023/10/04 03:57:38;;;;;;;15.93;3.28;;;13.80;65.00;;;;;;4992975;28;20874;-77
2023/10/04 04:00:11;;;;;;;11.95;3.40;;;13.80;65.10;;;;;;4974623;28;20401;-77
2023/10/04 04:02:37;;;;;;;16.85;3.70;;;13.90;64.90;;;;;;4991934;28;20473;-75
2023/10/04 04:05:05;;;;;;;14.30;4.05;;;13.90;63.90;;;;;;4995355;28;20406;-77
2023/10/04 04:07:31;;;;;;;18.80;3.70;;;13.80;64.90;;;;;;4996274;28;20493;-77
2023/10/04 04:09:57;;;;;;;18.63;3.97;;;13.80;65.50;;;;;;4996619;28;20391;-76
2023/10/04 04:12:23;;;;;;;15.38;4.03;;;13.70;66.30;;;;;;4995987;28;20382;-76
2023/10/04 04:14:51;;;;;;;13.57;3.45;;;13.60;66.50;;;;;;4996339;28;20386;-77
2023/10/04 04:17:18;;;;;;;12.80;3.60;;;13.60;66.90;;;;;;5002546;28;20928;-76
2023/10/04 04:19:44;;;;;;;13.95;3.55;;;13.60;66.70;;;;;;5002853;28;20919;-77
2023/10/04 04:22:10;;;;;;;19.15;4.20;;;13.60;67.30;;;;;;4998937;28;20398;-77
2023/10/04 04:24:36;;;;;;;15.93;4.00;;;13.40;68.40;;;;;;4995554;28;20406;-76
2023/10/04 04:27:01;;;;;;;11.60;3.40;;;13.40;69.20;;;;;;4998582;28;20386;-77
2023/10/04 04:29:28;;;;;;;16.10;4.00;;;13.40;68.20;;;;;;4984040;28;20545;-75
2023/10/04 04:31:56;;;;;;;15.45;3.88;;;13.30;69.60;;;;;;5001462;28;21000;-76
2023/10/04 04:34:22;;;;;;;13.43;4.10;;;13.30;70.40;;;;;;5003795;28;20386;-76
2023/10/04 04:36:49;;;;;;;19.00;3.80;;;13.10;73.10;;;;;;4995898;28;20417;-76
2023/10/04 04:39:18;;;;;;;13.35;3.80;;;13.10;74.10;;;;;;4994816;28;20402;-75
2023/10/04 04:41:46;;;;;;;15.18;3.78;;;13.00;75.00;;;;;;4993722;28;20810;-77
2023/10/04 04:44:19;;;;;;;14.68;3.80;;;12.90;76.70;;;;;;4995348;28;20409;-76
2023/10/04 04:46:47;;;;;;;25.20;4.93;;;12.90;76.50;;;;;;4995033;28;20890;-77
2023/10/04 04:49:13;;;;;;;11.60;3.90;;;12.90;77.40;;;;;;4995249;28;20394;-76
2023/10/04 04:51:39;;;;;;;18.08;4.40;;;12.80;76.70;;;;;;4993092;28;20389;-76
2023/10/04 04:54:06;;;;;;;12.70;3.50;;;12.80;78.20;;;;;;4993526;28;20386;-76
2023/10/04 04:56:32;;;;;;;16.38;3.60;;;12.70;80.10;;;;;;4993554;28;20832;-75
2023/10/04 04:59:07;;;;;;;16.65;4.47;;;12.60;81.50;;;;;;4994056;28;20382;-74
2023/10/04 05:01:34;;;;;;;17.42;4.07;;;12.60;82.40;;;;;;4993358;28;20378;-75
2023/10/04 05:04:03;;;;;;;12.07;4.10;;;12.60;82.50;;;;;;4975620;28;20889;-76
2023/10/04 05:06:29;;;;;;;19.27;4.30;;;12.60;82.10;;;;;;4993064;28;20401;-76
2023/10/04 05:08:54;;;;;;;21.90;4.40;;;12.50;83.10;;;;;;4993128;28;20484;-76
2023/10/04 05:11:21;;;;;;;22.73;4.60;;;12.60;82.80;;;;;;4993821;28;20830;-76
2023/10/04 05:13:46;;;;;;;15.35;4.50;;;12.60;82.60;;;;;;4994999;28;20792;-76
2023/10/04 05:16:12;;;;;;;19.23;4.85;;;12.60;81.80;;;;;;4999594;28;20397;-76
2023/10/04 05:18:38;;;;;;;15.75;4.55;;;12.60;82.30;;;;;;4997659;28;20394;-76
2023/10/04 05:21:04;;;;;;;19.88;4.60;;;12.50;83.20;;;;;;4994318;28;20750;-77
2023/10/04 05:23:30;;;;;;;17.63;4.43;;;12.40;83.90;;;;;;4996487;28;20406;-75
2023/10/04 05:25:56;;;;;;;19.45;4.80;;;12.50;84.20;;;;;;4995862;28;20418;-77
2023/10/04 05:28:22;;;;;;;24.63;5.05;;;12.40;84.60;;;;;;4995627;28;20378;-78
2023/10/04 05:30:48;;;;;;;22.60;5.00;;;12.50;84.20;;;;;;4996399;28;20446;-75
2023/10/04 05:33:16;;;;;;;22.35;4.72;;;12.50;84.20;;;;;;4994264;28;20393;-77
2023/10/04 05:35:47;;;;;;;23.02;5.35;;;12.50;83.20;;;;;;4994697;28;20402;-75
2023/10/04 05:38:17;;;;;;;15.63;4.72;;;12.50;83.90;;;;;;4979891;28;20409;-77
2023/10/04 05:40:44;;;;;;;12.30;4.68;;;12.40;84.80;;;;;;4995685;28;20502;-76
2023/10/04 05:43:12;;;;;;;20.75;5.07;;;12.30;86.50;;;;;;4996986;28;20397;-77
2023/10/04 05:45:38;;;;;;;21.25;4.68;;;12.40;86.00;;;;;;4995675;28;20912;-78
2023/10/04 05:48:05;;;;;;;19.85;4.50;;;12.40;85.10;;;;;;4978625;28;20398;-77
2023/10/04 05:50:34;;;;;;;21.65;4.53;;;12.40;84.40;;;;;;4995300;28;20385;-76
2023/10/04 05:53:05;;;;;;;20.23;4.90;;;12.50;84.50;;;;;;4997086;28;20389;-77
2023/10/04 05:55:32;;;;;;;21.65;4.60;;;12.40;84.20;;;;;;4984192;28;20387;-77
2023/10/04 05:57:58;;;;;;;16.02;4.60;;;12.40;84.60;;;;;;4998369;28;20414;-78
2023/10/04 06:00:40;;;;;;;12.77;4.10;;;12.30;86.00;;;;;;5000988;28;20541;-76
2023/10/04 06:03:11;;;;;;;14.25;4.40;;;12.40;84.60;;;;;;5001353;28;20884;-76
2023/10/04 06:05:38;;;;;;;16.42;5.28;;;12.40;85.70;;;;;;5000233;28;20498;-76
2023/10/04 06:08:15;;;;;;;18.60;4.90;;;12.40;85.30;;;;;;4997932;28;20553;-77
2023/10/04 06:10:41;;;;;;;21.85;4.95;;;12.50;84.40;;;;;;4999862;28;20391;-76
2023/10/04 06:13:12;;;;;;;27.27;4.82;;;12.40;83.80;;;;;;4997316;28;20857;-75
2023/10/04 06:15:42;;;;;;;24.23;4.60;;;12.50;82.90;;;;;;5003165;28;20387;-77
2023/10/04 06:18:14;;;;;;;16.13;4.75;;;12.50;81.50;;;;;;5004181;28;20380;-76
2023/10/04 06:20:43;;;;;;;20.52;5.10;;;12.50;80.70;;;;;;5003483;28;20436;-77
2023/10/04 06:23:10;;;;;;;18.60;4.60;;;12.60;80.10;;;;;;5001885;28;20378;-77
2023/10/04 06:25:44;;;;;;;12.77;4.38;;;12.60;78.90;;;;;;5001864;28;20435;-76
2023/10/04 06:28:11;;;;;;;14.63;4.40;;;12.70;78.40;;;;;;4999597;28;20725;-77
2023/10/04 06:30:37;;;;;;;14.73;4.30;;;12.70;76.90;;;;;;4981986;28;20398;-76
2023/10/04 06:33:05;;;;;;;18.83;4.40;;;12.60;78.40;;;;;;5003406;28;20386;-76
2023/10/04 06:35:32;;;;;;;14.23;4.93;;;12.80;76.00;;;;;;4994166;28;20398;-76
2023/10/04 06:38:03;;;;;;;18.42;4.20;;;12.80;75.40;;;;;;4993896;28;20386;-76
2023/10/04 06:40:32;;;;;;;20.90;4.78;;;12.90;74.00;;;;;;4980702;28;20485;-76
2023/10/04 06:43:04;;;;;;;14.93;4.80;;;12.80;75.00;;;;;;4998240;28;20390;-76
2023/10/04 06:45:29;;;;;;;19.88;4.75;;;12.90;73.90;;;;;;4997650;28;20407;-78
2023/10/04 06:47:58;;;;;;;20.35;5.30;;;12.90;72.60;;;;;;4999146;28;20513;-77
2023/10/04 06:50:40;;;;;;;17.45;4.63;;;12.90;73.70;;;;;;4995804;28;20408;-76
2023/10/04 06:53:07;;;;;;;23.70;5.93;;;13.00;71.90;;;;;;4992974;28;20387;-77
2023/10/04 06:55:34;;;;;;;31.30;9.90;;;13.00;71.40;;;;;;4993275;28;20401;-77
2023/10/04 06:58:00;;;;;;;21.23;5.10;;;13.00;72.70;;;;;;4994063;28;20401;-76
2023/10/04 07:00:30;;;;;;;16.65;4.32;;;13.00;73.20;;;;;;4996739;28;20391;-77
2023/10/04 07:02:59;;;;;;;18.98;4.57;;;13.00;71.20;;;;;;4998612;28;20394;-75
2023/10/04 07:05:36;;;;;;;21.90;4.82;;;13.00;72.60;;;;;;5004882;28;20481;-77
2023/10/04 07:08:04;;;;;;;24.25;7.55;;;13.10;71.20;;;;;;5000564;28;20394;-74
2023/10/04 07:10:29;;;;;;;20.00;4.70;;;13.10;71.70;;;;;;5001856;28;20387;-76
2023/10/04 07:12:59;;;;;;;21.25;4.22;;;13.20;70.10;;;;;;5004642;28;20379;-77
2023/10/04 07:15:36;;;;;;;14.77;4.40;;;13.30;67.10;;;;;;5004849;28;20422;-77
2023/10/04 07:18:07;;;;;;;23.27;5.28;;;13.40;66.40;;;;;;5002880;28;20397;-76
2023/10/04 07:20:34;;;;;;;17.03;5.03;;;13.40;66.40;;;;;;4983991;28;20401;-77
2023/10/04 07:23:03;;;;;;;15.27;4.78;;;13.50;64.10;;;;;;5005810;28;20394;-77
2023/10/04 07:25:30;;;;;;;18.35;4.72;;;13.50;65.60;;;;;;5006951;28;20410;-76
2023/10/04 07:27:57;;;;;;;15.15;4.35;;;13.60;63.40;;;;;;5006857;28;20379;-75
2023/10/04 07:30:25;;;;;;;21.77;4.90;;;13.70;62.80;;;;;;4985318;28;20391;-76
2023/10/04 07:32:54;;;;;;;22.23;4.72;;;13.80;62.30;;;;;;5002016;28;20394;-76
2023/10/04 07:35:24;;;;;;;14.23;4.45;;;13.70;61.90;;;;;;4987131;28;20455;-76
2023/10/04 07:37:51;;;;;;;15.17;4.13;;;13.70;62.00;;;;;;4986808;28;20398;-76
2023/10/04 07:40:17;;;;;;;17.65;4.65;;;13.80;60.60;;;;;;5000537;28;20394;-75
2023/10/04 07:42:45;;;;;;;20.10;5.10;;;13.90;59.80;;;;;;5003136;28;20757;-77
2023/10/04 07:45:12;;;;;;;16.98;5.18;;;14.00;60.10;;;;;;5002815;28;20406;-77
2023/10/04 07:47:41;;;;;;;23.10;4.80;;;13.90;61.00;;;;;;5001380;28;20394;-76
2023/10/04 07:50:13;;;;;;;22.17;4.80;;;14.00;58.40;;;;;;4997595;28;20386;-76
2023/10/04 07:52:41;;;;;;;17.90;4.80;;;14.10;58.80;;;;;;4986802;28;20410;-77
2023/10/04 07:55:14;;;;;;;21.00;4.40;;;14.30;58.40;;;;;;4998326;28;20449;-76
2023/10/04 07:57:42;;;;;;;21.60;5.10;;;14.30;56.80;;;;;;4996496;28;20402;-78
2023/10/04 08:00:15;;;;;;;12.98;3.88;;;14.30;56.80;;;;;;4980515;28;20411;-77
2023/10/04 08:02:49;;;;;;;16.25;4.68;;;14.40;56.60;;;;;;5000703;28;20395;-76
2023/10/04 08:05:20;;;;;;;19.83;4.60;;;14.40;57.10;;;;;;5000306;28;20888;-77
2023/10/04 08:07:48;;;;;;;21.70;5.25;;;14.50;56.40;;;;;;5002452;28;20417;-77
2023/10/04 08:10:14;;;;;;;18.70;4.85;;;14.70;55.80;;;;;;5001944;28;20386;-77
2023/10/04 08:12:42;;;;;;;13.18;4.32;;;14.70;54.60;;;;;;5004867;28;20868;-77
2023/10/04 08:15:09;;;;;;;13.48;4.40;;;14.80;54.30;;;;;;4999013;28;20405;-77
2023/10/04 08:17:34;;;;;;;26.27;5.50;;;14.90;52.60;;;;;;4995401;28;20824;-77
2023/10/04 08:20:00;;;;;;;17.70;4.57;;;15.00;51.90;;;;;;4996502;28;20429;-76
2023/10/04 08:22:27;;;;;;;16.27;5.00;;;15.00;52.30;;;;;;4979690;28;20829;-76
2023/10/04 08:24:54;;;;;;;23.80;5.07;;;15.10;52.10;;;;;;4997349;28;20417;-76
2023/10/04 08:27:19;;;;;;;14.38;4.80;;;15.10;51.50;;;;;;5001353;28;20802;-77
2023/10/04 08:29:45;;;;;;;18.80;4.80;;;15.20;51.30;;;;;;5000990;28;20397;-76
2023/10/04 08:32:10;;;;;;;17.67;5.10;;;15.30;50.00;;;;;;5001905;28;20379;-77
2023/10/04 08:34:37;;;;;;;19.33;4.78;;;15.40;48.80;;;;;;4984077;28;20800;-76
2023/10/04 08:37:02;;;;;;;17.90;4.50;;;15.30;50.40;;;;;;4998118;28;20481;-77
2023/10/04 08:39:29;;;;;;;18.85;4.80;;;15.30;51.10;;;;;;4982364;28;20426;-78
2023/10/04 08:41:55;;;;;;;17.65;5.18;;;15.40;50.90;;;;;;4983682;28;20802;-75
2023/10/04 08:44:21;;;;;;;17.35;4.60;;;15.40;48.90;;;;;;4999918;28;20410;-76
2023/10/04 08:46:47;;;;;;;16.73;4.50;;;15.50;49.00;;;;;;4996592;28;20406;-76
2023/10/04 08:49:19;;;;;;;21.10;4.70;;;15.60;47.80;;;;;;5001869;28;20893;-77
2023/10/04 08:51:51;;;;;;;18.77;4.80;;;15.60;48.00;;;;;;4997649;28;20789;-75
2023/10/04 08:54:24;;;;;;;18.45;4.80;;;15.70;47.80;;;;;;4998323;28;20382;-77
2023/10/04 08:57:00;;;;;;;21.23;4.30;;;15.80;47.50;;;;;;5000763;28;20387;-76
2023/10/04 08:59:27;;;;;;;18.45;5.10;;;15.90;46.80;;;;;;4979834;28;20453;-76
2023/10/04 09:01:54;;;;;;;18.65;4.63;;;16.00;46.10;;;;;;4996131;28;20397;-76
2023/10/04 09:04:24;;;;;;;14.70;4.47;;;16.10;45.40;;;;;;5002399;28;20414;-75
2023/10/04 09:06:51;;;;;;;16.08;4.80;;;16.20;45.60;;;;;;5013577;23;20438;-72
2023/10/04 09:09:18;;;;;;;13.70;4.75;;;16.30;43.20;;;;;;4994830;28;20732;-73
2023/10/04 09:11:45;;;;;;;17.65;4.68;;;16.30;43.60;;;;;;4993442;28;20405;-72
2023/10/04 09:14:11;;;;;;;20.75;4.70;;;16.40;43.70;;;;;;4976044;28;20445;-73
2023/10/04 09:16:37;;;;;;;13.52;3.90;;;16.40;43.10;;;;;;4996817;28;20387;-73
2023/10/04 09:19:17;;;;;;;19.55;3.90;;;16.40;43.20;;;;;;4998341;28;20931;-74
2023/10/04 09:21:43;;;;;;;20.00;4.60;;;16.50;42.80;;;;;;4995048;28;20387;-72
2023/10/04 09:24:09;;;;;;;13.85;4.22;;;16.50;42.80;;;;;;4992477;28;20466;-73
2023/10/04 09:26:55;;;;;;;17.47;5.00;;;16.60;43.80;;;;;;4992414;28;20405;-74
2023/10/04 09:29:36;;;;;;;17.55;5.28;;;16.80;42.50;;;;;;4992740;28;20489;-72
2023/10/04 09:32:03;;;;;;;16.45;5.68;;;17.10;41.20;;;;;;4992917;28;20382;-73
2023/10/04 09:34:30;;;;;;;13.80;4.50;;;17.30;39.30;;;;;;4992445;28;20391;-74
2023/10/04 09:36:56;;;;;;;16.77;4.40;;;17.40;38.90;;;;;;4992887;28;20418;-73
2023/10/04 09:39:24;;;;;;;14.75;4.45;;;17.60;39.30;;;;;;4992593;28;20393;-73
2023/10/04 09:41:50;;;;;;;20.52;4.50;;;17.80;37.50;;;;;;4992080;28;20448;-73
2023/10/04 09:44:25;;;;;;;20.38;4.50;;;18.00;37.10;;;;;;4992518;28;20394;-72
2023/10/04 09:46:56;;;;;;;18.23;4.65;;;18.20;36.00;;;;;;4992316;28;20414;-73
2023/10/04 09:49:24;;;;;;;17.60;4.60;;;18.30;35.40;;;;;;4992310;28;20390;-73
2023/10/04 09:51:52;;;;;;;21.95;5.30;;;18.60;35.50;;;;;;4992185;28;20383;-75
2023/10/04 09:54:18;;;;;;;19.08;4.55;;;18.80;34.50;;;;;;4992231;28;20757;-71
2023/10/04 09:56:46;;;;;;;17.13;4.07;;;19.10;33.10;;;;;;4992240;28;20382;-72
2023/10/04 09:59:19;;;;;;;18.83;4.15;;;19.10;32.60;;;;;;4992663;28;20469;-74
2023/10/04 10:01:52;;;;;;;16.60;4.05;;;18.90;32.10;;;;;;4991183;28;20386;-71
2023/10/04 10:04:23;;;;;;;14.48;3.92;;;18.90;33.30;;;;;;4992114;28;20383;-72
2023/10/04 10:07:14;;;;;;;18.40;4.90;;;18.80;32.70;;;;;;4991670;28;20479;-72
2023/10/04 10:10:04;;;;;;;13.45;4.20;;;18.70;32.60;;;;;;4991820;28;20466;-73
2023/10/04 10:12:31;;;;;;;17.90;5.10;;;18.50;33.30;;;;;;4991266;28;20382;-73
2023/10/04 10:15:02;;;;;;;18.35;4.43;;;18.50;33.80;;;;;;4991416;28;20386;-74
2023/10/04 10:17:30;;;;;;;15.32;3.95;;;18.60;33.60;;;;;;4991573;28;20398;-70
2023/10/04 10:19:56;;;;;;;18.85;4.32;;;18.50;33.60;;;;;;4991728;28;20881;-72
2023/10/04 10:22:22;;;;;;;11.90;4.18;;;18.80;32.60;;;;;;4974119;28;20406;-73
2023/10/04 10:24:57;;;;;;;14.87;4.10;;;18.80;32.50;;;;;;4991865;28;20905;-72
2023/10/04 10:27:24;;;;;;;10.77;3.90;;;18.90;32.40;;;;;;4991214;28;20386;-72
2023/10/04 10:29:51;;;;;;;13.00;4.20;;;18.90;32.50;;;;;;4991424;28;20390;-72
2023/10/04 10:32:20;;;;;;;13.73;4.40;;;19.10;32.10;;;;;;4991311;28;20395;-71
2023/10/04 10:34:49;;;;;;;18.17;4.45;;;19.00;31.80;;;;;;4991849;28;20398;-71
2023/10/04 10:37:17;;;;;;;19.73;4.50;;;18.90;31.60;;;;;;4992081;28;20398;-73
2023/10/04 10:39:47;;;;;;;13.90;4.47;;;18.90;30.40;;;;;;4992144;28;20698;-72
2023/10/04 10:42:14;;;;;;;13.07;3.92;;;18.80;29.80;;;;;;4991221;28;20391;-72
2023/10/04 10:44:40;;;;;;;15.00;4.28;;;18.70;29.30;;;;;;4991164;28;20410;-71
2023/10/04 10:47:16;;;;;;;11.80;3.50;;;18.80;29.70;;;;;;4991135;28;20865;-73
2023/10/04 10:50:27;;;;;;;11.10;3.90;;;18.80;29.40;;;;;;4973855;28;20477;-72
2023/10/04 10:53:04;;;;;;;15.65;3.70;;;18.60;29.30;;;;;;4973578;28;20402;-71
2023/10/04 10:55:29;;;;;;;11.70;4.07;;;18.50;29.60;;;;;;4991221;28;20390;-72
2023/10/04 10:57:57;;;;;;;13.97;3.90;;;18.60;30.20;;;;;;4991176;28;20389;-72
2023/10/04 11:00:23;;;;;;;10.75;4.30;;;18.80;28.90;;;;;;4991748;28;20426;-73
2023/10/04 11:02:53;;;;;;;16.27;4.10;;;18.80;28.50;;;;;;4991483;28;20409;-74
2023/10/04 11:05:20;;;;;;;13.57;4.40;;;18.90;29.00;;;;;;4991328;28;20410;-72
2023/10/04 11:07:52;;;;;;;16.13;4.45;;;18.80;28.10;;;;;;4990547;28;20403;-72
2023/10/04 11:10:20;;;;;;;14.63;4.77;;;18.80;27.00;;;;;;4990522;28;20409;-72
2023/10/04 11:12:46;;;;;;;13.82;3.90;;;18.80;26.80;;;;;;4990440;28;20433;-74
2023/10/04 11:15:13;;;;;;;18.63;4.47;;;18.70;27.40;;;;;;4990976;28;20394;-73
2023/10/04 11:17:39;;;;;;;16.43;4.40;;;18.80;27.80;;;;;;4990840;28;20390;-74
2023/10/04 11:20:09;;;;;;;12.85;4.60;;;18.80;29.00;;;;;;4991225;28;20739;-74
2023/10/04 11:22:37;;;;;;;13.73;4.67;;;18.90;27.90;;;;;;4991322;28;20745;-74
2023/10/04 11:25:05;;;;;;;13.82;4.50;;;19.00;26.70;;;;;;4991859;28;20780;-74
2023/10/04 11:27:31;;;;;;;17.67;5.00;;;18.90;27.10;;;;;;4990666;28;20480;-74
2023/10/04 11:29:57;;;;;;;18.45;4.80;;;19.00;26.90;;;;;;4990992;28;20427;-73
2023/10/04 11:32:23;;;;;;;16.20;5.30;;;19.00;27.10;;;;;;4990913;28;20469;-73
2023/10/04 11:34:49;;;;;;;13.93;3.80;;;19.10;27.20;;;;;;4991073;28;20394;-74
2023/10/04 11:37:15;;;;;;;18.07;4.60;;;19.20;27.40;;;;;;4990960;28;20390;-74
2023/10/04 11:39:43;;;;;;;16.40;4.75;;;19.40;27.50;;;;;;4991053;28;20401;-73
2023/10/04 11:42:17;;;;;;;15.27;4.40;;;19.40;27.60;;;;;;4990644;28;20445;-72
2023/10/04 11:44:43;;;;;;;13.82;5.20;;;19.30;27.10;;;;;;4990575;28;20769;-73
2023/10/04 11:47:09;;;;;;;12.85;4.65;;;19.30;26.90;;;;;;4990408;28;20802;-74
2023/10/04 11:49:38;;;;;;;15.00;5.00;;;19.50;26.40;;;;;;4990716;28;20421;-72
2023/10/04 11:52:05;;;;;;;16.58;5.38;;;19.50;26.50;;;;;;4990882;28;20422;-73
2023/10/04 11:54:41;;;;;;;17.50;5.10;;;19.60;25.50;;;;;;4973255;28;20453;-72
2023/10/04 11:57:08;;;;;;;19.05;5.43;;;19.70;25.40;;;;;;4990601;28;20391;-72
2023/10/04 11:59:34;;;;;;;13.47;4.90;;;19.70;25.30;;;;;;4990360;28;20395;-71
2023/10/04 12:02:01;;;;;;;14.25;5.30;;;19.80;25.30;;;;;;4990264;28;20394;-72
2023/10/04 12:04:31;;;;;;;16.33;5.53;;;19.80;25.40;;;;;;4990384;28;20407;-71
2023/10/04 12:07:02;;;;;;;14.70;5.30;;;20.00;23.90;;;;;;4990227;28;20417;-71
2023/10/04 12:09:31;;;;;;;16.08;4.90;;;20.10;23.60;;;;;;4990198;28;20378;-72
2023/10/04 12:11:57;;;;;;;18.42;5.93;;;20.10;22.70;;;;;;4990113;28;20422;-73
2023/10/04 12:14:23;;;;;;;16.88;5.35;;;20.10;22.80;;;;;;4990162;28;20473;-74
2023/10/04 12:16:49;;;;;;;18.00;5.38;;;19.90;24.10;;;;;;4990518;28;20929;-73
2023/10/04 12:19:15;;;;;;;20.27;5.75;;;19.80;24.30;;;;;;4990431;28;20394;-73
2023/10/04 12:21:41;;;;;;;14.80;5.00;;;19.90;24.40;;;;;;4990010;28;20537;-74
2023/10/04 12:24:09;;;;;;;19.20;5.70;;;19.90;24.50;;;;;;4991065;28;20885;-72
2023/10/04 12:26:35;;;;;;;14.80;5.00;;;19.90;23.80;;;;;;4993093;28;20410;-73
2023/10/04 12:29:01;;;;;;;15.95;5.22;;;20.00;23.90;;;;;;4993874;28;20374;-72
2023/10/04 12:31:27;;;;;;;17.73;5.30;;;20.00;24.10;;;;;;4994066;28;20390;-72
2023/10/04 12:33:55;;;;;;;14.85;5.20;;;20.10;23.90;;;;;;4994059;28;20391;-73
2023/10/04 12:36:22;;;;;;;15.55;5.28;;;20.10;23.00;;;;;;4993954;28;20394;-72
2023/10/04 12:38:48;;;;;;;16.15;5.45;;;20.10;23.10;;;;;;4994051;28;20789;-73
2023/10/04 12:41:15;;;;;;;15.15;5.80;;;20.10;23.70;;;;;;4994040;28;20406;-72
2023/10/04 12:43:41;;;;;;;19.67;5.90;;;20.20;22.10;;;;;;4995553;28;20482;-74